Terminal Aerodrome Forecast
Issued by NWS

Home | Current Version | Previous Version | Text Only | Print | Product List | Glossary On
Versions: 1 2 3 4 5 6 7 8 9 10 11 12 13 14 15 16 17
000
FTUS46 KSEW 232300 RRA
TAFOLM
TAF
KOLM 232346Z 2400/2424 22007KT P6SM VCSH SCT020 SCT035
     FM240400 20004KT P6SM SCT025
     FM240900 00000KT 3/4SM BR BKN002 BKN035
     FM241800 18009KT P6SM SCT030 BKN050 OVC070
     FM242300 18010KT P6SM VCSH OVC045=

USA.gov is the U.S. government's official web portal to all federal, state and local government web resources and services.